Terminal Aerodrome Forecast
Issued by NWS Upton, NY

Home | Current Version | Previous Version | Text Only | Print | Product List | Glossary On
Versions: 1 2 3 4 5 6 7 8 9 10 11 12 13 14 15 16 17 18 19 20 21 22 23 24 25 26 27 28
000
FTUS41 KOKX 212330
TAFJFK
TAF
KJFK 212330Z 2200/2306 20004KT P6SM OVC040
     FM220800 VRB03KT P6SM SCT012 OVC030
     FM221200 16005KT 4SM -DZRA BR SCT010 OVC020
     FM222100 14007KT P6SM FEW020 OVC050
     FM222300 13004KT P6SM BKN050=

USA.gov is the U.S. government's official web portal to all federal, state and local government web resources and services.